Search for airport 
image banner adimage banner adimage banner ad
image banner ad

PS47 - Hamilton Hill

Located in Ebensburg, United States

ICAO - PS47, IATA -

Data provided by Airmate  

General information

Coordinates: N40°25'40" W78°44'29"
Elevation is 2245 feet MSL.
Magnetic variation is -08° East
View others Airports in Pennsylvania

Operational data

Special qualification required
Current time UTC:
Current local time:
METAR: KJST 091614Z AUTO 14010G15KT 10SM SCT007 SCT014 OVC040 03/02 A2992 RMK AO2 RAE05 P0000 T00330017
TAF: KJST 091537Z 0916/1012 10012KT 4SM -RA BR OVC020 FM100100 35010G20KT 2SM -RA BR OVC005 WS020/23049KT FM100900 34008G16KT P6SM BKN006 OVC010
View NOTAMs / SUP AIP / TFR affecting this airport [VIEW]
Communications frequencies: [VIEW]

Runways:

RWY identifierQFULength (ft)Width (ft)SurfaceLDA (ft)
10180060GRASS
28180060GRASS

Airport contact information

Address: Ebensburg United States

Satellite view of PS47